sensor_id;sensor_type;location;lat;lon;timestamp;P1;durP1;ratioP1;P2;durP2;ratioP2
67140;SDS011;54058;52.010;5.546;2023-08-06T00:00:24;3.20;;;2.75;;
67140;SDS011;54058;52.010;5.546;2023-08-06T00:02:51;4.95;;;2.80;;
67140;SDS011;54058;52.010;5.546;2023-08-06T00:05:16;6.68;;;3.20;;
67140;SDS011;54058;52.010;5.546;2023-08-06T00:07:48;5.45;;;2.95;;
67140;SDS011;54058;52.010;5.546;2023-08-06T00:10:14;7.13;;;3.10;;
67140;SDS011;54058;52.010;5.546;2023-08-06T00:12:40;4.17;;;2.83;;
67140;SDS011;54058;52.010;5.546;2023-08-06T00:15:05;3.92;;;2.53;;
67140;SDS011;54058;52.010;5.546;2023-08-06T00:17:31;4.87;;;3.10;;
67140;SDS011;54058;52.010;5.546;2023-08-06T00:19:58;6.82;;;3.03;;
67140;SDS011;54058;52.010;5.546;2023-08-06T00:22:29;8.80;;;3.15;;
67140;SDS011;54058;52.010;5.546;2023-08-06T00:24:56;4.45;;;2.70;;
67140;SDS011;54058;52.010;5.546;2023-08-06T00:27:22;6.38;;;2.75;;
67140;SDS011;54058;52.010;5.546;2023-08-06T00:29:48;4.72;;;2.95;;
67140;SDS011;54058;52.010;5.546;2023-08-06T00:32:13;5.65;;;3.30;;
67140;SDS011;54058;52.010;5.546;2023-08-06T00:34:39;3.92;;;3.20;;
67140;SDS011;54058;52.010;5.546;2023-08-06T00:37:05;3.22;;;2.75;;
67140;SDS011;54058;52.010;5.546;2023-08-06T00:39:30;4.82;;;3.13;;
67140;SDS011;54058;52.010;5.546;2023-08-06T00:41:56;7.47;;;3.05;;
67140;SDS011;54058;52.010;5.546;2023-08-06T00:44:23;3.60;;;2.97;;
67140;SDS011;54058;52.010;5.546;2023-08-06T00:46:49;8.68;;;3.15;;
67140;SDS011;54058;52.010;5.546;2023-08-06T00:49:15;5.13;;;3.67;;
67140;SDS011;54058;52.010;5.546;2023-08-06T00:51:40;4.95;;;3.47;;
67140;SDS011;54058;52.010;5.546;2023-08-06T00:54:08;8.07;;;3.55;;
67140;SDS011;54058;52.010;5.546;2023-08-06T00:56:35;4.00;;;3.30;;
67140;SDS011;54058;52.010;5.546;2023-08-06T00:59:01;3.67;;;3.08;;
67140;SDS011;54058;52.010;5.546;2023-08-06T01:01:29;6.28;;;3.35;;
67140;SDS011;54058;52.010;5.546;2023-08-06T01:03:55;10.48;;;3.38;;
67140;SDS011;54058;52.010;5.546;2023-08-06T01:06:23;8.40;;;3.45;;
67140;SDS011;54058;52.010;5.546;2023-08-06T01:09:15;4.63;;;3.15;;
67140;SDS011;54058;52.010;5.546;2023-08-06T01:12:01;7.15;;;3.50;;
67140;SDS011;54058;52.010;5.546;2023-08-06T01:14:35;5.97;;;3.40;;
67140;SDS011;54058;52.010;5.546;2023-08-06T01:17:10;3.50;;;3.08;;
67140;SDS011;54058;52.010;5.546;2023-08-06T01:19:37;5.75;;;3.53;;
67140;SDS011;54058;52.010;5.546;2023-08-06T01:22:03;6.85;;;3.70;;
67140;SDS011;54058;52.010;5.546;2023-08-06T01:24:29;5.32;;;4.03;;
67140;SDS011;54058;52.010;5.546;2023-08-06T01:26:59;5.65;;;3.53;;
67140;SDS011;54058;52.010;5.546;2023-08-06T01:32:08;6.18;;;3.28;;
67140;SDS011;54058;52.010;5.546;2023-08-06T01:34:36;4.93;;;3.63;;
67140;SDS011;54058;52.010;5.546;2023-08-06T01:37:04;5.28;;;3.63;;
67140;SDS011;54058;52.010;5.546;2023-08-06T01:39:32;9.05;;;3.80;;
67140;SDS011;54058;52.010;5.546;2023-08-06T01:41:58;8.98;;;3.83;;
67140;SDS011;54058;52.010;5.546;2023-08-06T01:44:24;6.78;;;3.55;;
67140;SDS011;54058;52.010;5.546;2023-08-06T01:46:49;7.95;;;3.58;;
67140;SDS011;54058;52.010;5.546;2023-08-06T01:49:16;8.17;;;3.73;;
67140;SDS011;54058;52.010;5.546;2023-08-06T01:51:41;4.97;;;3.42;;
67140;SDS011;54058;52.010;5.546;2023-08-06T01:54:07;4.63;;;3.25;;
67140;SDS011;54058;52.010;5.546;2023-08-06T01:56:32;7.82;;;3.80;;
67140;SDS011;54058;52.010;5.546;2023-08-06T01:58:58;6.90;;;3.53;;
67140;SDS011;54058;52.010;5.546;2023-08-06T02:01:23;6.90;;;4.38;;
67140;SDS011;54058;52.010;5.546;2023-08-06T02:03:49;7.95;;;4.50;;
67140;SDS011;54058;52.010;5.546;2023-08-06T02:06:15;7.40;;;5.00;;
67140;SDS011;54058;52.010;5.546;2023-08-06T02:08:40;8.57;;;5.05;;
67140;SDS011;54058;52.010;5.546;2023-08-06T02:11:06;6.60;;;5.05;;
67140;SDS011;54058;52.010;5.546;2023-08-06T02:13:31;8.65;;;5.25;;
67140;SDS011;54058;52.010;5.546;2023-08-06T02:15:57;7.25;;;5.30;;
67140;SDS011;54058;52.010;5.546;2023-08-06T02:18:23;8.55;;;6.07;;
67140;SDS011;54058;52.010;5.546;2023-08-06T02:20:55;10.02;;;5.90;;
67140;SDS011;54058;52.010;5.546;2023-08-06T02:23:22;9.43;;;5.90;;
67140;SDS011;54058;52.010;5.546;2023-08-06T02:25:48;10.35;;;6.53;;
67140;SDS011;54058;52.010;5.546;2023-08-06T02:28:13;7.97;;;5.78;;
67140;SDS011;54058;52.010;5.546;2023-08-06T02:30:39;11.20;;;6.15;;
67140;SDS011;54058;52.010;5.546;2023-08-06T02:33:14;11.10;;;6.18;;
67140;SDS011;54058;52.010;5.546;2023-08-06T02:35:39;6.45;;;5.32;;
67140;SDS011;54058;52.010;5.546;2023-08-06T02:38:08;11.35;;;6.45;;
67140;SDS011;54058;52.010;5.546;2023-08-06T02:40:33;10.15;;;6.20;;
67140;SDS011;54058;52.010;5.546;2023-08-06T02:42:59;7.63;;;5.65;;
67140;SDS011;54058;52.010;5.546;2023-08-06T02:45:25;10.75;;;6.13;;
67140;SDS011;54058;52.010;5.546;2023-08-06T02:47:50;9.50;;;6.05;;
67140;SDS011;54058;52.010;5.546;2023-08-06T02:50:16;6.40;;;5.40;;
67140;SDS011;54058;52.010;5.546;2023-08-06T02:52:41;7.97;;;5.38;;
67140;SDS011;54058;52.010;5.546;2023-08-06T02:55:07;7.95;;;5.63;;
67140;SDS011;54058;52.010;5.546;2023-08-06T02:57:34;11.75;;;6.05;;
67140;SDS011;54058;52.010;5.546;2023-08-06T02:59:59;10.98;;;6.07;;
67140;SDS011;54058;52.010;5.546;2023-08-06T03:02:25;9.10;;;6.25;;
67140;SDS011;54058;52.010;5.546;2023-08-06T03:04:50;10.07;;;6.10;;
67140;SDS011;54058;52.010;5.546;2023-08-06T03:07:16;11.82;;;6.20;;
67140;SDS011;54058;52.010;5.546;2023-08-06T03:09:42;9.52;;;5.75;;
67140;SDS011;54058;52.010;5.546;2023-08-06T03:12:07;10.65;;;6.10;;
67140;SDS011;54058;52.010;5.546;2023-08-06T03:14:33;10.27;;;6.30;;
67140;SDS011;54058;52.010;5.546;2023-08-06T03:16:58;7.40;;;5.80;;
67140;SDS011;54058;52.010;5.546;2023-08-06T03:19:24;11.77;;;6.28;;
67140;SDS011;54058;52.010;5.546;2023-08-06T03:21:50;8.38;;;6.20;;
67140;SDS011;54058;52.010;5.546;2023-08-06T03:24:15;9.38;;;5.95;;
67140;SDS011;54058;52.010;5.546;2023-08-06T03:26:41;9.60;;;5.32;;
67140;SDS011;54058;52.010;5.546;2023-08-06T03:29:06;9.55;;;6.30;;
67140;SDS011;54058;52.010;5.546;2023-08-06T03:31:32;10.43;;;5.47;;
67140;SDS011;54058;52.010;5.546;2023-08-06T03:33:57;14.55;;;5.70;;
67140;SDS011;54058;52.010;5.546;2023-08-06T03:36:23;12.13;;;6.05;;
67140;SDS011;54058;52.010;5.546;2023-08-06T03:38:49;6.20;;;5.20;;
67140;SDS011;54058;52.010;5.546;2023-08-06T03:41:14;7.78;;;5.70;;
67140;SDS011;54058;52.010;5.546;2023-08-06T03:43:40;9.15;;;5.57;;
67140;SDS011;54058;52.010;5.546;2023-08-06T03:46:05;8.35;;;5.80;;
67140;SDS011;54058;52.010;5.546;2023-08-06T03:48:31;7.95;;;5.78;;
67140;SDS011;54058;52.010;5.546;2023-08-06T03:50:57;9.90;;;5.28;;
67140;SDS011;54058;52.010;5.546;2023-08-06T03:53:23;8.55;;;5.57;;
67140;SDS011;54058;52.010;5.546;2023-08-06T03:55:48;8.70;;;5.43;;
67140;SDS011;54058;52.010;5.546;2023-08-06T03:58:14;8.05;;;5.35;;
67140;SDS011;54058;52.010;5.546;2023-08-06T04:00:39;11.68;;;4.72;;
67140;SDS011;54058;52.010;5.546;2023-08-06T04:03:05;6.53;;;4.95;;
67140;SDS011;54058;52.010;5.546;2023-08-06T04:05:31;8.27;;;5.05;;
67140;SDS011;54058;52.010;5.546;2023-08-06T04:12:50;8.77;;;4.70;;
67140;SDS011;54058;52.010;5.546;2023-08-06T04:15:15;6.82;;;4.93;;
67140;SDS011;54058;52.010;5.546;2023-08-06T04:17:41;7.60;;;5.45;;
67140;SDS011;54058;52.010;5.546;2023-08-06T04:20:07;6.75;;;5.30;;
67140;SDS011;54058;52.010;5.546;2023-08-06T04:22:32;9.45;;;5.43;;
67140;SDS011;54058;52.010;5.546;2023-08-06T04:24:58;8.63;;;6.10;;
67140;SDS011;54058;52.010;5.546;2023-08-06T04:27:24;7.47;;;6.05;;
67140;SDS011;54058;52.010;5.546;2023-08-06T04:29:50;6.85;;;5.63;;
67140;SDS011;54058;52.010;5.546;2023-08-06T04:32:15;10.98;;;5.15;;
67140;SDS011;54058;52.010;5.546;2023-08-06T04:34:42;8.07;;;5.72;;
67140;SDS011;54058;52.010;5.546;2023-08-06T04:37:08;6.78;;;5.22;;
67140;SDS011;54058;52.010;5.546;2023-08-06T04:39:35;6.78;;;4.80;;
67140;SDS011;54058;52.010;5.546;2023-08-06T04:44:26;7.07;;;4.87;;
67140;SDS011;54058;52.010;5.546;2023-08-06T04:46:52;8.02;;;5.88;;
67140;SDS011;54058;52.010;5.546;2023-08-06T04:49:20;9.90;;;6.35;;
67140;SDS011;54058;52.010;5.546;2023-08-06T04:51:46;10.80;;;7.05;;
67140;SDS011;54058;52.010;5.546;2023-08-06T04:54:12;6.97;;;6.00;;
67140;SDS011;54058;52.010;5.546;2023-08-06T04:56:38;10.13;;;6.93;;
67140;SDS011;54058;52.010;5.546;2023-08-06T04:59:03;10.27;;;7.82;;
67140;SDS011;54058;52.010;5.546;2023-08-06T05:01:29;9.02;;;6.95;;
67140;SDS011;54058;52.010;5.546;2023-08-06T05:03:54;10.38;;;7.13;;
67140;SDS011;54058;52.010;5.546;2023-08-06T05:06:20;10.07;;;7.43;;
67140;SDS011;54058;52.010;5.546;2023-08-06T05:08:46;8.48;;;6.45;;
67140;SDS011;54058;52.010;5.546;2023-08-06T05:11:11;9.65;;;6.70;;
67140;SDS011;54058;52.010;5.546;2023-08-06T05:13:37;11.23;;;6.95;;
67140;SDS011;54058;52.010;5.546;2023-08-06T05:16:02;8.23;;;6.57;;
67140;SDS011;54058;52.010;5.546;2023-08-06T05:18:28;7.45;;;6.32;;
67140;SDS011;54058;52.010;5.546;2023-08-06T05:20:55;9.82;;;6.90;;
67140;SDS011;54058;52.010;5.546;2023-08-06T05:23:21;10.73;;;6.72;;
67140;SDS011;54058;52.010;5.546;2023-08-06T05:25:46;10.40;;;6.80;;
67140;SDS011;54058;52.010;5.546;2023-08-06T05:28:12;9.50;;;7.15;;
67140;SDS011;54058;52.010;5.546;2023-08-06T05:30:41;10.80;;;7.03;;
67140;SDS011;54058;52.010;5.546;2023-08-06T05:33:06;10.60;;;7.18;;
67140;SDS011;54058;52.010;5.546;2023-08-06T05:35:32;10.63;;;7.95;;
67140;SDS011;54058;52.010;5.546;2023-08-06T05:37:58;10.15;;;7.45;;
67140;SDS011;54058;52.010;5.546;2023-08-06T05:40:24;8.70;;;7.18;;
67140;SDS011;54058;52.010;5.546;2023-08-06T05:42:50;8.97;;;7.50;;
67140;SDS011;54058;52.010;5.546;2023-08-06T05:45:17;9.98;;;7.47;;
67140;SDS011;54058;52.010;5.546;2023-08-06T05:47:43;13.38;;;8.10;;
67140;SDS011;54058;52.010;5.546;2023-08-06T05:50:09;12.00;;;7.90;;
67140;SDS011;54058;52.010;5.546;2023-08-06T05:52:35;10.50;;;8.40;;
67140;SDS011;54058;52.010;5.546;2023-08-06T05:55:01;14.30;;;8.40;;
67140;SDS011;54058;52.010;5.546;2023-08-06T05:57:27;18.98;;;8.32;;
67140;SDS011;54058;52.010;5.546;2023-08-06T05:59:52;12.95;;;7.55;;
67140;SDS011;54058;52.010;5.546;2023-08-06T06:02:18;10.73;;;8.43;;
67140;SDS011;54058;52.010;5.546;2023-08-06T06:04:43;11.73;;;8.07;;
67140;SDS011;54058;52.010;5.546;2023-08-06T06:07:09;13.07;;;8.25;;
67140;SDS011;54058;52.010;5.546;2023-08-06T06:09:35;11.02;;;8.55;;
67140;SDS011;54058;52.010;5.546;2023-08-06T06:12:00;10.80;;;8.18;;
67140;SDS011;54058;52.010;5.546;2023-08-06T06:14:26;13.05;;;7.97;;
67140;SDS011;54058;52.010;5.546;2023-08-06T06:16:51;12.00;;;8.52;;
67140;SDS011;54058;52.010;5.546;2023-08-06T06:19:18;12.63;;;9.17;;
67140;SDS011;54058;52.010;5.546;2023-08-06T06:21:43;12.13;;;8.82;;
67140;SDS011;54058;52.010;5.546;2023-08-06T06:24:09;16.02;;;9.07;;
67140;SDS011;54058;52.010;5.546;2023-08-06T06:26:35;12.90;;;9.30;;
67140;SDS011;54058;52.010;5.546;2023-08-06T06:29:00;14.48;;;8.77;;
67140;SDS011;54058;52.010;5.546;2023-08-06T06:31:26;13.57;;;8.80;;
67140;SDS011;54058;52.010;5.546;2023-08-06T06:33:52;12.32;;;9.73;;
67140;SDS011;54058;52.010;5.546;2023-08-06T06:36:19;13.88;;;8.05;;
67140;SDS011;54058;52.010;5.546;2023-08-06T06:38:45;11.75;;;8.50;;
67140;SDS011;54058;52.010;5.546;2023-08-06T06:41:11;13.88;;;9.15;;
67140;SDS011;54058;52.010;5.546;2023-08-06T06:43:37;13.88;;;9.30;;
67140;SDS011;54058;52.010;5.546;2023-08-06T06:46:04;16.85;;;9.40;;
67140;SDS011;54058;52.010;5.546;2023-08-06T06:48:31;17.33;;;8.65;;
67140;SDS011;54058;52.010;5.546;2023-08-06T06:50:57;15.27;;;9.73;;
67140;SDS011;54058;52.010;5.546;2023-08-06T06:53:23;11.52;;;8.90;;
67140;SDS011;54058;52.010;5.546;2023-08-06T06:55:55;10.68;;;9.32;;
67140;SDS011;54058;52.010;5.546;2023-08-06T06:58:26;11.63;;;8.82;;
67140;SDS011;54058;52.010;5.546;2023-08-06T07:00:51;10.80;;;7.32;;
67140;SDS011;54058;52.010;5.546;2023-08-06T07:03:17;12.20;;;8.77;;
67140;SDS011;54058;52.010;5.546;2023-08-06T07:08:10;9.03;;;7.73;;
67140;SDS011;54058;52.010;5.546;2023-08-06T07:10:35;12.90;;;9.10;;
67140;SDS011;54058;52.010;5.546;2023-08-06T07:13:01;11.23;;;8.93;;
67140;SDS011;54058;52.010;5.546;2023-08-06T07:15:26;11.40;;;9.07;;
67140;SDS011;54058;52.010;5.546;2023-08-06T07:17:52;12.82;;;9.20;;
67140;SDS011;54058;52.010;5.546;2023-08-06T07:20:18;12.75;;;8.40;;
67140;SDS011;54058;52.010;5.546;2023-08-06T07:22:44;11.70;;;9.07;;
67140;SDS011;54058;52.010;5.546;2023-08-06T07:25:09;13.60;;;9.77;;
67140;SDS011;54058;52.010;5.546;2023-08-06T07:27:35;12.90;;;7.95;;
67140;SDS011;54058;52.010;5.546;2023-08-06T07:30:01;11.95;;;8.20;;
67140;SDS011;54058;52.010;5.546;2023-08-06T07:32:26;10.45;;;8.23;;
67140;SDS011;54058;52.010;5.546;2023-08-06T07:34:55;10.15;;;8.02;;
67140;SDS011;54058;52.010;5.546;2023-08-06T07:37:24;10.05;;;8.05;;
67140;SDS011;54058;52.010;5.546;2023-08-06T07:39:50;10.23;;;8.02;;
67140;SDS011;54058;52.010;5.546;2023-08-06T07:42:16;8.63;;;7.03;;
67140;SDS011;54058;52.010;5.546;2023-08-06T07:44:41;12.10;;;7.72;;
67140;SDS011;54058;52.010;5.546;2023-08-06T07:47:07;17.38;;;7.22;;
67140;SDS011;54058;52.010;5.546;2023-08-06T07:49:32;15.68;;;8.15;;
67140;SDS011;54058;52.010;5.546;2023-08-06T07:51:58;14.00;;;7.97;;
67140;SDS011;54058;52.010;5.546;2023-08-06T07:54:24;11.50;;;7.72;;
67140;SDS011;54058;52.010;5.546;2023-08-06T07:56:49;9.75;;;7.30;;
67140;SDS011;54058;52.010;5.546;2023-08-06T07:59:15;7.75;;;5.95;;
67140;SDS011;54058;52.010;5.546;2023-08-06T08:01:41;6.07;;;5.33;;
67140;SDS011;54058;52.010;5.546;2023-08-06T08:04:07;5.78;;;4.32;;
67140;SDS011;54058;52.010;5.546;2023-08-06T08:06:33;7.57;;;4.15;;
67140;SDS011;54058;52.010;5.546;2023-08-06T08:08:58;5.50;;;4.72;;
67140;SDS011;54058;52.010;5.546;2023-08-06T08:11:25;4.90;;;4.40;;
67140;SDS011;54058;52.010;5.546;2023-08-06T08:13:51;7.25;;;4.82;;
67140;SDS011;54058;52.010;5.546;2023-08-06T08:16:16;5.10;;;4.60;;
67140;SDS011;54058;52.010;5.546;2023-08-06T08:18:42;4.45;;;4.05;;
67140;SDS011;54058;52.010;5.546;2023-08-06T08:21:08;4.13;;;3.72;;
67140;SDS011;54058;52.010;5.546;2023-08-06T08:23:33;3.40;;;3.10;;
67140;SDS011;54058;52.010;5.546;2023-08-06T08:26:03;3.13;;;2.83;;
67140;SDS011;54058;52.010;5.546;2023-08-06T08:28:29;1.67;;;1.58;;
67140;SDS011;54058;52.010;5.546;2023-08-06T08:30:55;1.80;;;1.40;;
67140;SDS011;54058;52.010;5.546;2023-08-06T08:33:21;1.52;;;0.98;;
67140;SDS011;54058;52.010;5.546;2023-08-06T08:35:47;1.65;;;0.50;;
67140;SDS011;54058;52.010;5.546;2023-08-06T08:38:12;0.70;;;0.50;;
67140;SDS011;54058;52.010;5.546;2023-08-06T08:40:40;0.50;;;0.50;;
67140;SDS011;54058;52.010;5.546;2023-08-06T08:43:12;1.23;;;0.63;;
67140;SDS011;54058;52.010;5.546;2023-08-06T08:45:39;3.28;;;0.60;;
67140;SDS011;54058;52.010;5.546;2023-08-06T08:48:07;0.60;;;0.60;;
67140;SDS011;54058;52.010;5.546;2023-08-06T08:50:35;0.95;;;0.60;;
67140;SDS011;54058;52.010;5.546;2023-08-06T08:53:01;0.70;;;0.63;;
67140;SDS011;54058;52.010;5.546;2023-08-06T08:55:27;0.60;;;0.60;;
67140;SDS011;54058;52.010;5.546;2023-08-06T08:57:52;2.15;;;0.70;;
67140;SDS011;54058;52.010;5.546;2023-08-06T09:00:18;1.70;;;0.80;;
67140;SDS011;54058;52.010;5.546;2023-08-06T09:02:44;1.23;;;0.90;;
67140;SDS011;54058;52.010;5.546;2023-08-06T09:05:10;0.90;;;0.70;;
67140;SDS011;54058;52.010;5.546;2023-08-06T09:07:48;1.15;;;1.05;;
67140;SDS011;54058;52.010;5.546;2023-08-06T09:10:14;0.85;;;0.77;;
67140;SDS011;54058;52.010;5.546;2023-08-06T09:12:42;4.35;;;1.00;;
67140;SDS011;54058;52.010;5.546;2023-08-06T09:17:35;3.00;;;1.10;;
67140;SDS011;54058;52.010;5.546;2023-08-06T09:20:11;3.50;;;1.00;;
67140;SDS011;54058;52.010;5.546;2023-08-06T09:22:37;1.90;;;1.60;;
67140;SDS011;54058;52.010;5.546;2023-08-06T09:25:03;0.80;;;0.73;;
67140;SDS011;54058;52.010;5.546;2023-08-06T09:27:34;1.33;;;1.10;;
67140;SDS011;54058;52.010;5.546;2023-08-06T09:30:03;0.95;;;0.90;;
67140;SDS011;54058;52.010;5.546;2023-08-06T09:32:44;1.30;;;1.05;;
67140;SDS011;54058;52.010;5.546;2023-08-06T09:35:16;3.08;;;1.30;;
67140;SDS011;54058;52.010;5.546;2023-08-06T09:37:42;1.48;;;1.25;;
67140;SDS011;54058;52.010;5.546;2023-08-06T09:40:28;2.70;;;1.95;;
67140;SDS011;54058;52.010;5.546;2023-08-06T09:42:56;1.60;;;1.50;;
67140;SDS011;54058;52.010;5.546;2023-08-06T09:45:22;2.22;;;1.67;;
67140;SDS011;54058;52.010;5.546;2023-08-06T09:47:56;2.53;;;1.80;;
67140;SDS011;54058;52.010;5.546;2023-08-06T09:50:22;3.15;;;1.75;;
67140;SDS011;54058;52.010;5.546;2023-08-06T09:52:50;2.22;;;2.03;;
67140;SDS011;54058;52.010;5.546;2023-08-06T09:55:16;2.85;;;2.00;;
67140;SDS011;54058;52.010;5.546;2023-08-06T09:57:43;4.45;;;2.28;;
67140;SDS011;54058;52.010;5.546;2023-08-06T10:00:09;5.55;;;2.28;;
67140;SDS011;54058;52.010;5.546;2023-08-06T10:02:39;3.05;;;2.25;;
67140;SDS011;54058;52.010;5.546;2023-08-06T10:05:08;2.10;;;2.00;;
67140;SDS011;54058;52.010;5.546;2023-08-06T10:07:34;3.58;;;2.47;;
67140;SDS011;54058;52.010;5.546;2023-08-06T10:10:00;2.83;;;2.53;;
67140;SDS011;54058;52.010;5.546;2023-08-06T10:15:01;3.72;;;2.30;;
67140;SDS011;54058;52.010;5.546;2023-08-06T10:17:31;5.53;;;2.42;;
67140;SDS011;54058;52.010;5.546;2023-08-06T10:19:59;7.68;;;2.13;;
67140;SDS011;54058;52.010;5.546;2023-08-06T10:22:25;3.53;;;2.55;;
67140;SDS011;54058;52.010;5.546;2023-08-06T10:24:58;3.25;;;2.53;;
67140;SDS011;54058;52.010;5.546;2023-08-06T10:27:34;3.38;;;2.75;;
67140;SDS011;54058;52.010;5.546;2023-08-06T10:33:04;4.28;;;2.97;;
67140;SDS011;54058;52.010;5.546;2023-08-06T10:35:43;3.42;;;2.78;;
67140;SDS011;54058;52.010;5.546;2023-08-06T10:38:16;3.08;;;2.78;;
67140;SDS011;54058;52.010;5.546;2023-08-06T10:40:52;5.40;;;3.28;;
67140;SDS011;54058;52.010;5.546;2023-08-06T10:46:01;3.83;;;2.78;;
67140;SDS011;54058;52.010;5.546;2023-08-06T10:48:37;7.65;;;2.88;;
67140;SDS011;54058;52.010;5.546;2023-08-06T10:51:07;4.78;;;3.13;;
67140;SDS011;54058;52.010;5.546;2023-08-06T10:53:36;4.43;;;2.85;;
67140;SDS011;54058;52.010;5.546;2023-08-06T10:56:16;5.10;;;3.35;;
67140;SDS011;54058;52.010;5.546;2023-08-06T10:58:43;4.60;;;3.10;;
67140;SDS011;54058;52.010;5.546;2023-08-06T11:01:10;6.75;;;2.63;;
67140;SDS011;54058;52.010;5.546;2023-08-06T11:03:36;5.53;;;3.30;;
67140;SDS011;54058;52.010;5.546;2023-08-06T11:06:02;5.97;;;2.97;;
67140;SDS011;54058;52.010;5.546;2023-08-06T11:08:29;5.07;;;3.22;;
67140;SDS011;54058;52.010;5.546;2023-08-06T11:11:19;5.75;;;2.70;;
67140;SDS011;54058;52.010;5.546;2023-08-06T11:13:48;5.07;;;2.33;;
67140;SDS011;54058;52.010;5.546;2023-08-06T11:16:15;6.13;;;2.47;;
67140;SDS011;54058;52.010;5.546;2023-08-06T11:18:43;3.90;;;2.83;;
67140;SDS011;54058;52.010;5.546;2023-08-06T11:21:09;6.10;;;2.45;;
67140;SDS011;54058;52.010;5.546;2023-08-06T11:23:37;4.03;;;2.67;;
67140;SDS011;54058;52.010;5.546;2023-08-06T11:26:03;5.25;;;2.50;;
67140;SDS011;54058;52.010;5.546;2023-08-06T11:28:30;10.07;;;2.88;;
67140;SDS011;54058;52.010;5.546;2023-08-06T11:30:55;6.18;;;2.70;;
67140;SDS011;54058;52.010;5.546;2023-08-06T11:33:25;5.10;;;2.63;;
67140;SDS011;54058;52.010;5.546;2023-08-06T11:35:53;5.72;;;2.72;;
67140;SDS011;54058;52.010;5.546;2023-08-06T11:38:20;6.65;;;2.47;;
67140;SDS011;54058;52.010;5.546;2023-08-06T11:40:49;9.65;;;2.55;;
67140;SDS011;54058;52.010;5.546;2023-08-06T11:43:17;4.38;;;2.42;;
67140;SDS011;54058;52.010;5.546;2023-08-06T11:45:49;3.63;;;2.10;;
67140;SDS011;54058;52.010;5.546;2023-08-06T11:48:19;3.08;;;2.40;;
67140;SDS011;54058;52.010;5.546;2023-08-06T11:50:45;2.70;;;1.80;;
67140;SDS011;54058;52.010;5.546;2023-08-06T11:53:14;5.63;;;2.72;;
67140;SDS011;54058;52.010;5.546;2023-08-06T11:55:40;17.73;;;2.70;;
67140;SDS011;54058;52.010;5.546;2023-08-06T11:58:06;3.87;;;2.20;;
67140;SDS011;54058;52.010;5.546;2023-08-06T12:00:32;9.77;;;2.55;;
67140;SDS011;54058;52.010;5.546;2023-08-06T12:02:58;4.50;;;2.17;;
67140;SDS011;54058;52.010;5.546;2023-08-06T12:07:55;2.38;;;2.10;;
67140;SDS011;54058;52.010;5.546;2023-08-06T12:10:23;4.07;;;2.33;;
67140;SDS011;54058;52.010;5.546;2023-08-06T12:12:50;5.13;;;2.50;;
67140;SDS011;54058;52.010;5.546;2023-08-06T12:15:15;4.07;;;2.67;;
67140;SDS011;54058;52.010;5.546;2023-08-06T12:17:42;2.13;;;1.92;;
67140;SDS011;54058;52.010;5.546;2023-08-06T12:20:08;2.60;;;1.70;;
67140;SDS011;54058;52.010;5.546;2023-08-06T12:22:34;1.75;;;1.65;;
67140;SDS011;54058;52.010;5.546;2023-08-06T12:25:01;2.07;;;1.87;;
67140;SDS011;54058;52.010;5.546;2023-08-06T12:27:28;2.70;;;1.70;;
67140;SDS011;54058;52.010;5.546;2023-08-06T12:29:54;2.65;;;1.67;;
67140;SDS011;54058;52.010;5.546;2023-08-06T12:32:20;1.88;;;1.35;;
67140;SDS011;54058;52.010;5.546;2023-08-06T12:34:46;3.30;;;1.63;;
67140;SDS011;54058;52.010;5.546;2023-08-06T12:37:12;2.92;;;1.55;;
67140;SDS011;54058;52.010;5.546;2023-08-06T12:39:38;4.20;;;1.73;;
67140;SDS011;54058;52.010;5.546;2023-08-06T12:42:04;2.42;;;1.35;;
67140;SDS011;54058;52.010;5.546;2023-08-06T12:44:30;2.78;;;1.48;;
67140;SDS011;54058;52.010;5.546;2023-08-06T12:46:57;2.63;;;1.58;;
67140;SDS011;54058;52.010;5.546;2023-08-06T12:49:22;3.28;;;1.60;;
67140;SDS011;54058;52.010;5.546;2023-08-06T12:51:51;3.28;;;1.42;;
67140;SDS011;54058;52.010;5.546;2023-08-06T12:54:17;3.05;;;1.52;;
67140;SDS011;54058;52.010;5.546;2023-08-06T12:56:44;5.90;;;1.40;;
67140;SDS011;54058;52.010;5.546;2023-08-06T12:59:10;1.60;;;1.00;;
67140;SDS011;54058;52.010;5.546;2023-08-06T13:01:37;1.92;;;1.20;;
67140;SDS011;54058;52.010;5.546;2023-08-06T13:04:03;2.60;;;1.02;;
67140;SDS011;54058;52.010;5.546;2023-08-06T13:06:29;10.65;;;1.20;;
67140;SDS011;54058;52.010;5.546;2023-08-06T13:08:55;1.63;;;1.13;;
67140;SDS011;54058;52.010;5.546;2023-08-06T13:11:23;1.20;;;1.10;;
67140;SDS011;54058;52.010;5.546;2023-08-06T13:13:49;2.38;;;1.30;;
67140;SDS011;54058;52.010;5.546;2023-08-06T13:16:15;2.58;;;1.20;;
67140;SDS011;54058;52.010;5.546;2023-08-06T13:18:40;3.88;;;1.20;;
67140;SDS011;54058;52.010;5.546;2023-08-06T13:21:06;2.67;;;0.90;;
67140;SDS011;54058;52.010;5.546;2023-08-06T13:23:31;2.13;;;1.10;;
67140;SDS011;54058;52.010;5.546;2023-08-06T13:25:57;2.95;;;1.30;;
67140;SDS011;54058;52.010;5.546;2023-08-06T13:28:23;2.30;;;1.20;;
67140;SDS011;54058;52.010;5.546;2023-08-06T13:30:49;2.70;;;0.95;;
67140;SDS011;54058;52.010;5.546;2023-08-06T13:33:15;2.65;;;1.17;;
67140;SDS011;54058;52.010;5.546;2023-08-06T13:35:40;3.95;;;1.00;;
67140;SDS011;54058;52.010;5.546;2023-08-06T13:38:06;1.48;;;1.00;;
67140;SDS011;54058;52.010;5.546;2023-08-06T13:40:32;1.30;;;0.95;;
67140;SDS011;54058;52.010;5.546;2023-08-06T13:42:58;1.92;;;1.10;;
67140;SDS011;54058;52.010;5.546;2023-08-06T13:45:24;1.55;;;0.80;;
67140;SDS011;54058;52.010;5.546;2023-08-06T13:47:50;2.20;;;1.20;;
67140;SDS011;54058;52.010;5.546;2023-08-06T13:50:15;2.38;;;1.30;;
67140;SDS011;54058;52.010;5.546;2023-08-06T13:52:41;2.22;;;0.80;;
67140;SDS011;54058;52.010;5.546;2023-08-06T13:55:07;2.38;;;1.20;;
67140;SDS011;54058;52.010;5.546;2023-08-06T13:57:36;1.38;;;1.00;;
67140;SDS011;54058;52.010;5.546;2023-08-06T14:00:02;2.15;;;1.05;;
67140;SDS011;54058;52.010;5.546;2023-08-06T14:02:28;1.03;;;1.00;;
67140;SDS011;54058;52.010;5.546;2023-08-06T14:04:54;1.23;;;0.93;;
67140;SDS011;54058;52.010;5.546;2023-08-06T14:07:20;2.13;;;1.00;;
67140;SDS011;54058;52.010;5.546;2023-08-06T14:09:46;2.03;;;1.10;;
67140;SDS011;54058;52.010;5.546;2023-08-06T14:12:12;1.80;;;1.23;;
67140;SDS011;54058;52.010;5.546;2023-08-06T14:14:38;2.53;;;1.20;;
67140;SDS011;54058;52.010;5.546;2023-08-06T14:17:04;1.85;;;1.40;;
67140;SDS011;54058;52.010;5.546;2023-08-06T14:19:30;1.38;;;1.20;;
67140;SDS011;54058;52.010;5.546;2023-08-06T14:21:56;1.73;;;1.00;;
67140;SDS011;54058;52.010;5.546;2023-08-06T14:24:22;4.45;;;1.10;;
67140;SDS011;54058;52.010;5.546;2023-08-06T14:26:47;4.60;;;1.48;;
67140;SDS011;54058;52.010;5.546;2023-08-06T14:29:13;1.45;;;1.20;;
67140;SDS011;54058;52.010;5.546;2023-08-06T14:31:39;1.88;;;0.88;;
67140;SDS011;54058;52.010;5.546;2023-08-06T14:34:05;3.90;;;1.58;;
67140;SDS011;54058;52.010;5.546;2023-08-06T14:36:31;3.65;;;1.40;;
67140;SDS011;54058;52.010;5.546;2023-08-06T14:38:57;2.47;;;1.48;;
67140;SDS011;54058;52.010;5.546;2023-08-06T14:41:23;1.58;;;1.10;;
67140;SDS011;54058;52.010;5.546;2023-08-06T14:43:49;5.20;;;1.30;;
67140;SDS011;54058;52.010;5.546;2023-08-06T14:46:15;2.97;;;1.35;;
67140;SDS011;54058;52.010;5.546;2023-08-06T14:48:41;2.55;;;1.20;;
67140;SDS011;54058;52.010;5.546;2023-08-06T14:51:07;1.35;;;1.20;;
67140;SDS011;54058;52.010;5.546;2023-08-06T14:53:33;2.65;;;1.52;;
67140;SDS011;54058;52.010;5.546;2023-08-06T14:55:58;4.75;;;1.50;;
67140;SDS011;54058;52.010;5.546;2023-08-06T14:58:24;1.10;;;1.05;;
67140;SDS011;54058;52.010;5.546;2023-08-06T15:00:50;2.80;;;1.20;;
67140;SDS011;54058;52.010;5.546;2023-08-06T15:03:15;2.42;;;1.23;;
67140;SDS011;54058;52.010;5.546;2023-08-06T15:05:46;1.10;;;1.02;;
67140;SDS011;54058;52.010;5.546;2023-08-06T15:08:13;2.63;;;1.20;;